createdAt,value
2022-10-09T00:00:20.577Z,30.83
2022-10-09T00:02:51.338Z,25.87
2022-10-09T00:05:20.938Z,19.63
2022-10-09T00:07:50.130Z,28.03
2022-10-09T00:10:19.169Z,43.23
2022-10-09T00:12:48.756Z,35.80
2022-10-09T00:15:18.114Z,24.17
2022-10-09T00:17:47.058Z,23.83
2022-10-09T00:20:17.568Z,20.40
2022-10-09T00:22:46.789Z,22.80
2022-10-09T00:25:16.059Z,33.67
2022-10-09T00:27:44.981Z,30.33
2022-10-09T00:30:14.386Z,33.53
2022-10-09T00:32:43.288Z,50.93
2022-10-09T00:35:12.194Z,37.57
2022-10-09T00:37:42.566Z,53.77
2022-10-09T00:40:11.603Z,44.37
2022-10-09T00:42:40.510Z,28.17
2022-10-09T00:45:20.392Z,41.13
2022-10-09T00:47:52.389Z,34.63
2022-10-09T00:50:24.045Z,12.30
2022-10-09T00:52:58.323Z,7.00
2022-10-09T00:55:30.710Z,9.57
2022-10-09T00:58:01.589Z,44.00
2022-10-09T01:00:30.574Z,86.23
2022-10-09T01:02:59.502Z,37.13
2022-10-09T01:05:40.372Z,38.47
2022-10-09T01:08:16.025Z,19.07
2022-10-09T01:10:51.553Z,10.57
2022-10-09T01:13:28.345Z,17.17
2022-10-09T01:16:00.282Z,12.03
2022-10-09T01:18:38.422Z,9.30
2022-10-09T01:21:13.308Z,7.13
2022-10-09T01:23:55.114Z,9.60
2022-10-09T01:27:01.338Z,6.77
2022-10-09T01:29:34.015Z,14.00
2022-10-09T01:32:04.719Z,14.20
2022-10-09T01:34:34.625Z,3.47
2022-10-09T01:37:05.172Z,16.10
2022-10-09T01:39:36.218Z,13.57
2022-10-09T01:42:06.897Z,9.63
2022-10-09T01:44:35.861Z,6.77
2022-10-09T01:47:06.228Z,7.00
2022-10-09T01:49:52.823Z,3.80
2022-10-09T01:52:41.445Z,8.37
2022-10-09T01:55:42.854Z,6.63
2022-10-09T01:58:20.249Z,8.67
2022-10-09T02:00:57.909Z,13.80
2022-10-09T02:03:29.795Z,10.83
2022-10-09T02:06:01.214Z,11.00
2022-10-09T02:08:31.983Z,5.77
2022-10-09T02:11:02.690Z,6.97
2022-10-09T02:13:35.577Z,6.17
2022-10-09T02:16:13.641Z,9.03
2022-10-09T02:18:46.191Z,4.80
2022-10-09T02:21:19.707Z,6.50
2022-10-09T02:23:51.915Z,7.30
2022-10-09T02:26:21.820Z,16.20
2022-10-09T02:28:52.233Z,14.37
2022-10-09T02:31:26.737Z,3.93
2022-10-09T02:34:00.187Z,8.63
2022-10-09T02:36:30.383Z,7.80
2022-10-09T02:38:59.475Z,9.40
2022-10-09T02:41:29.228Z,21.57
2022-10-09T02:43:59.541Z,6.23
2022-10-09T02:46:28.687Z,5.00
2022-10-09T02:48:57.945Z,9.80
2022-10-09T02:51:27.449Z,7.97
2022-10-09T02:53:56.676Z,16.20
2022-10-09T02:56:26.261Z,15.50
2022-10-09T02:58:55.229Z,12.67
2022-10-09T03:01:26.177Z,14.33
2022-10-09T03:03:55.270Z,6.50
2022-10-09T03:06:26.433Z,9.13
2022-10-09T03:08:56.576Z,9.00
2022-10-09T03:11:27.222Z,8.30
2022-10-09T03:13:56.436Z,7.07
2022-10-09T03:16:28.417Z,7.27
2022-10-09T03:18:58.392Z,7.40
2022-10-09T03:21:29.159Z,3.97
2022-10-09T03:23:58.282Z,9.73
2022-10-09T03:26:28.306Z,10.93
2022-10-09T03:28:57.495Z,7.50
2022-10-09T03:34:17.546Z,7.43
2022-10-09T03:36:46.717Z,5.97
2022-10-09T03:39:15.641Z,6.00
2022-10-09T03:41:44.590Z,8.00
2022-10-09T03:44:13.497Z,9.20
2022-10-09T03:46:43.777Z,13.93
2022-10-09T03:49:12.940Z,7.17
2022-10-09T03:51:41.809Z,7.13
2022-10-09T03:54:10.957Z,7.57
2022-10-09T03:56:39.868Z,12.73
2022-10-09T03:59:09.591Z,7.20
2022-10-09T04:01:38.779Z,8.63
2022-10-09T04:04:09.106Z,14.93
2022-10-09T04:06:38.016Z,5.23
2022-10-09T04:09:06.946Z,11.13
2022-10-09T04:11:35.996Z,10.13
2022-10-09T04:14:05.056Z,10.40
2022-10-09T04:16:34.074Z,6.23
2022-10-09T04:19:03.408Z,6.33
2022-10-09T04:21:34.367Z,5.30
2022-10-09T04:24:03.920Z,8.53
2022-10-09T04:26:32.852Z,9.97
2022-10-09T04:29:01.787Z,7.93
2022-10-09T04:31:30.856Z,4.23
2022-10-09T04:33:59.858Z,3.23
2022-10-09T04:36:28.763Z,4.43
2022-10-09T04:38:59.039Z,18.10
2022-10-09T04:41:28.014Z,19.10
2022-10-09T04:43:57.766Z,20.07
2022-10-09T04:46:26.718Z,12.70
2022-10-09T04:48:55.696Z,9.13
2022-10-09T04:51:24.811Z,11.33
2022-10-09T04:53:59.754Z,7.70
2022-10-09T04:56:31.042Z,7.00
2022-10-09T04:58:59.929Z,8.87
2022-10-09T05:01:33.090Z,12.17
2022-10-09T05:04:06.152Z,9.43
2022-10-09T05:06:35.100Z,8.40
2022-10-09T05:09:04.177Z,12.93
2022-10-09T05:11:35.685Z,8.87
2022-10-09T05:14:06.135Z,7.97
2022-10-09T05:16:49.364Z,17.97
2022-10-09T05:19:24.038Z,13.70
2022-10-09T05:21:53.018Z,10.67
2022-10-09T05:24:22.326Z,7.63
2022-10-09T05:26:52.686Z,4.60
2022-10-09T05:29:21.731Z,8.20
2022-10-09T05:31:50.805Z,10.40
2022-10-09T05:34:19.810Z,10.43
2022-10-09T05:36:48.852Z,13.27
2022-10-09T05:39:18.149Z,4.17
2022-10-09T05:41:47.066Z,16.20
2022-10-09T05:44:17.388Z,10.93
2022-10-09T05:46:46.443Z,7.73
2022-10-09T05:49:15.428Z,23.93
2022-10-09T05:51:44.440Z,10.67
2022-10-09T05:54:16.580Z,13.30
2022-10-09T05:56:46.340Z,6.00
2022-10-09T05:59:19.624Z,13.37
2022-10-09T06:01:50.936Z,15.30
2022-10-09T06:04:22.372Z,10.53
2022-10-09T06:06:51.839Z,7.63
2022-10-09T06:09:23.464Z,9.37
2022-10-09T06:11:53.200Z,4.03
2022-10-09T06:14:24.470Z,12.33
2022-10-09T06:16:54.618Z,5.83
2022-10-09T06:19:23.933Z,8.00
2022-10-09T06:21:53.744Z,6.90
2022-10-09T06:24:29.123Z,4.87
2022-10-09T06:26:59.589Z,8.70
2022-10-09T06:29:31.281Z,9.40
2022-10-09T06:32:00.923Z,8.30
2022-10-09T06:34:30.707Z,7.77
2022-10-09T06:37:00.846Z,10.00
2022-10-09T06:39:30.525Z,8.90
2022-10-09T06:42:00.437Z,10.33
2022-10-09T06:44:44.718Z,10.47
2022-10-09T06:47:14.199Z,11.77
2022-10-09T06:49:44.161Z,11.43
2022-10-09T06:52:14.092Z,7.20
2022-10-09T06:54:43.737Z,10.87
2022-10-09T06:57:13.260Z,7.70
2022-10-09T06:59:44.121Z,8.00
2022-10-09T07:02:14.010Z,9.07
2022-10-09T07:04:43.806Z,8.97
2022-10-09T07:07:13.300Z,9.87
2022-10-09T07:09:43.231Z,4.97
2022-10-09T07:12:13.098Z,8.80
2022-10-09T07:14:44.121Z,13.93
2022-10-09T07:17:13.842Z,14.87
2022-10-09T07:19:43.560Z,14.87
2022-10-09T07:22:13.178Z,12.30
2022-10-09T07:24:42.937Z,12.10
2022-10-09T07:27:12.446Z,10.90
2022-10-09T07:29:43.665Z,8.97
2022-10-09T07:32:13.571Z,9.80
2022-10-09T07:34:43.573Z,13.30
2022-10-09T07:37:13.248Z,5.40
2022-10-09T07:39:45.034Z,10.47
2022-10-09T07:42:14.310Z,12.93
2022-10-09T07:44:45.095Z,11.37
2022-10-09T07:47:14.504Z,14.07
2022-10-09T07:49:44.306Z,12.70
2022-10-09T07:52:14.006Z,11.53
2022-10-09T07:54:43.488Z,8.40
2022-10-09T07:57:12.904Z,11.83
2022-10-09T07:59:42.588Z,15.43
2022-10-09T08:02:13.721Z,15.43
2022-10-09T08:04:43.336Z,18.27
2022-10-09T08:07:12.770Z,14.03
2022-10-09T08:09:42.576Z,10.47
2022-10-09T08:12:12.206Z,9.43
2022-10-09T08:14:41.203Z,10.33
2022-10-09T08:17:10.208Z,14.17
2022-10-09T08:19:40.553Z,14.10
2022-10-09T08:22:09.471Z,16.47
2022-10-09T08:24:38.413Z,8.93
2022-10-09T08:27:07.700Z,15.03
2022-10-09T08:29:40.053Z,16.30
2022-10-09T08:32:09.324Z,10.93
2022-10-09T08:34:39.655Z,13.23
2022-10-09T08:37:08.675Z,8.07
2022-10-09T08:39:37.581Z,19.23
2022-10-09T08:42:07.009Z,9.00
2022-10-09T08:44:41.776Z,12.50
2022-10-09T08:47:18.028Z,13.67
2022-10-09T08:49:52.545Z,10.40
2022-10-09T08:52:29.353Z,12.50
2022-10-09T08:55:05.098Z,8.77
2022-10-09T08:57:36.163Z,10.43
2022-10-09T09:00:14.443Z,4.57
2022-10-09T09:03:03.137Z,9.37
2022-10-09T09:05:46.388Z,7.45
2022-10-09T09:08:24.543Z,7.55
2022-10-09T09:11:03.200Z,9.13
2022-10-09T09:13:46.585Z,5.28
2022-10-09T09:16:26.037Z,5.13
2022-10-09T09:19:10.559Z,5.45
2022-10-09T09:21:48.319Z,8.90
2022-10-09T09:24:19.782Z,13.18
2022-10-09T09:26:54.294Z,7.60
2022-10-09T09:29:24.928Z,9.02
2022-10-09T09:31:58.352Z,6.57
2022-10-09T09:34:35.603Z,6.40
2022-10-09T09:37:05.966Z,7.50
2022-10-09T09:42:25.131Z,8.25
2022-10-09T09:45:00.291Z,7.78
2022-10-09T09:47:35.452Z,5.63
2022-10-09T09:50:12.260Z,6.15
2022-10-09T09:52:55.127Z,15.00
2022-10-09T09:55:28.499Z,10.27
2022-10-09T09:58:03.864Z,8.85
2022-10-09T10:00:33.330Z,5.13
2022-10-09T10:03:14.463Z,5.25
2022-10-09T10:05:44.574Z,4.53
2022-10-09T10:08:23.931Z,9.43
2022-10-09T10:10:54.855Z,9.65
2022-10-09T10:13:29.351Z,8.32
2022-10-09T10:15:59.528Z,7.45
2022-10-09T10:18:32.257Z,5.65
2022-10-09T10:21:05.623Z,6.22
2022-10-09T10:23:40.479Z,12.40
2022-10-09T10:26:19.487Z,5.60
2022-10-09T10:28:53.178Z,5.85
2022-10-09T10:31:44.115Z,4.03
2022-10-09T10:34:20.351Z,4.65
2022-10-09T10:36:51.874Z,4.32
2022-10-09T10:39:30.302Z,7.47
2022-10-09T10:42:05.745Z,7.00
2022-10-09T10:44:43.752Z,4.53
2022-10-09T10:47:19.220Z,3.85
2022-10-09T10:49:48.186Z,8.25
2022-10-09T10:52:29.682Z,4.70
2022-10-09T10:55:08.086Z,5.43
2022-10-09T10:57:47.414Z,4.32
2022-10-09T11:00:17.360Z,6.93
2022-10-09T11:03:25.392Z,3.65
2022-10-09T11:06:02.731Z,4.15
2022-10-09T11:09:04.000Z,4.03
2022-10-09T11:11:41.050Z,6.18
2022-10-09T11:14:20.930Z,8.57
2022-10-09T11:17:01.460Z,3.55
2022-10-09T11:19:51.239Z,2.28
2022-10-09T11:22:50.430Z,3.22
2022-10-09T11:25:29.485Z,4.95
2022-10-09T11:28:07.347Z,7.00
2022-10-09T11:30:42.817Z,8.57
2022-10-09T11:33:30.066Z,8.68
2022-10-09T11:36:05.830Z,5.75
2022-10-09T11:38:39.188Z,5.45
2022-10-09T11:41:09.178Z,20.00
2022-10-09T11:43:53.350Z,6.13
2022-10-09T11:46:33.067Z,9.45
2022-10-09T11:49:09.849Z,9.88
2022-10-09T11:51:45.524Z,7.75
2022-10-09T11:54:17.509Z,6.20
2022-10-09T11:56:55.377Z,3.33
2022-10-09T11:59:29.929Z,5.47
2022-10-09T12:02:01.072Z,3.35
2022-10-09T12:04:53.847Z,4.13
2022-10-09T12:07:35.583Z,2.90
2022-10-09T12:10:09.469Z,3.97
2022-10-09T12:12:38.834Z,6.78
2022-10-09T12:15:27.075Z,7.68
2022-10-09T12:17:56.050Z,11.32
2022-10-09T12:20:27.770Z,3.10
2022-10-09T12:23:25.289Z,4.32
2022-10-09T12:25:51.089Z,6.90
2022-10-09T12:28:29.695Z,6.15
2022-10-09T12:31:04.794Z,5.20
2022-10-09T12:33:41.604Z,6.72
2022-10-09T12:36:16.448Z,9.73
2022-10-09T12:38:46.755Z,6.03
2022-10-09T12:41:22.203Z,3.72
2022-10-09T12:43:54.280Z,4.95
2022-10-09T12:46:35.514Z,4.55
2022-10-09T12:49:08.934Z,5.00
2022-10-09T12:51:39.127Z,3.42
2022-10-09T12:54:11.823Z,9.82
2022-10-09T12:56:41.513Z,3.55
2022-10-09T12:59:14.122Z,2.03
2022-10-09T13:01:47.323Z,7.22
2022-10-09T13:04:31.990Z,4.72
2022-10-09T13:07:07.507Z,8.20
2022-10-09T13:09:39.201Z,12.13
2022-10-09T13:12:17.405Z,7.72
2022-10-09T13:14:55.494Z,10.77
2022-10-09T13:20:24.352Z,2.75
2022-10-09T13:23:00.427Z,3.65
2022-10-09T13:25:35.357Z,4.38
2022-10-09T13:28:06.173Z,2.65
2022-10-09T13:30:35.383Z,3.22
2022-10-09T13:33:14.051Z,5.63
2022-10-09T13:35:44.918Z,5.05
2022-10-09T13:38:17.776Z,8.00
2022-10-09T13:40:47.649Z,5.75
2022-10-09T13:43:23.162Z,6.32
2022-10-09T13:45:53.092Z,3.67
2022-10-09T13:48:25.566Z,5.13
2022-10-09T13:50:55.766Z,4.10
2022-10-09T13:53:26.129Z,4.47
2022-10-09T13:56:00.714Z,6.45
2022-10-09T13:58:31.891Z,6.18
2022-10-09T14:01:01.869Z,3.72
2022-10-09T14:03:33.540Z,4.38
2022-10-09T14:06:04.792Z,4.05
2022-10-09T14:08:35.014Z,3.75
2022-10-09T14:11:05.875Z,4.32
2022-10-09T14:13:36.199Z,6.60
2022-10-09T14:16:07.525Z,3.83
2022-10-09T14:18:39.342Z,4.65
2022-10-09T14:21:15.272Z,5.85
2022-10-09T14:23:44.683Z,5.47
2022-10-09T14:26:13.593Z,7.80
2022-10-09T14:28:42.567Z,5.13
2022-10-09T14:31:11.557Z,3.30
2022-10-09T14:33:41.937Z,3.47
2022-10-09T14:36:13.054Z,2.83
2022-10-09T14:38:43.092Z,4.22
2022-10-09T14:41:13.298Z,7.55
2022-10-09T14:43:42.347Z,4.10
2022-10-09T14:46:14.438Z,9.77
2022-10-09T14:48:54.433Z,5.88
2022-10-09T14:54:28.693Z,3.22
2022-10-09T14:57:01.777Z,3.10
2022-10-09T14:59:33.948Z,8.00
2022-10-09T15:02:06.551Z,10.80
2022-10-09T15:04:39.747Z,5.97
2022-10-09T15:07:14.323Z,2.83
2022-10-09T15:09:51.682Z,8.18
2022-10-09T15:12:20.691Z,4.57
2022-10-09T15:14:49.831Z,2.57
2022-10-09T15:17:19.194Z,6.45
2022-10-09T15:19:49.474Z,4.27
2022-10-09T15:22:18.364Z,6.00
2022-10-09T15:24:50.577Z,2.70
2022-10-09T15:27:19.552Z,4.37
2022-10-09T15:29:48.449Z,5.77
2022-10-09T15:32:17.330Z,5.10
2022-10-09T15:34:46.244Z,4.23
2022-10-09T15:37:16.471Z,8.93
2022-10-09T15:39:45.372Z,3.73
2022-10-09T15:42:14.304Z,1.63
2022-10-09T15:44:43.774Z,5.40
2022-10-09T15:47:16.485Z,4.30
2022-10-09T15:49:47.289Z,1.60
2022-10-09T15:52:19.302Z,5.43
2022-10-09T15:54:48.358Z,4.40
2022-10-09T15:57:17.320Z,6.50
2022-10-09T15:59:46.822Z,3.70
2022-10-09T16:02:15.706Z,9.47
2022-10-09T16:04:44.937Z,3.83
2022-10-09T16:07:13.855Z,4.40
2022-10-09T16:09:44.096Z,2.30
2022-10-09T16:12:13.004Z,6.10
2022-10-09T16:14:42.802Z,5.00
2022-10-09T16:17:11.722Z,11.67
2022-10-09T16:19:40.734Z,11.57
2022-10-09T16:22:10.073Z,3.97
2022-10-09T16:24:39.169Z,6.23
2022-10-09T16:27:09.623Z,6.57
2022-10-09T16:29:38.566Z,5.50
2022-10-09T16:32:07.523Z,7.60
2022-10-09T16:34:36.588Z,4.50
2022-10-09T16:37:05.841Z,4.80
2022-10-09T16:39:34.775Z,5.13
2022-10-09T16:42:03.915Z,8.23
2022-10-09T16:44:35.503Z,13.27
2022-10-09T16:47:04.528Z,6.73
2022-10-09T16:49:33.607Z,4.60
2022-10-09T16:52:02.617Z,6.07
2022-10-09T16:54:31.643Z,4.80
2022-10-09T16:57:01.825Z,5.33
2022-10-09T16:59:30.933Z,3.83
2022-10-09T17:02:02.290Z,15.83
2022-10-09T17:04:31.764Z,12.63
2022-10-09T17:07:00.714Z,12.00
2022-10-09T17:09:30.265Z,7.70
2022-10-09T17:11:59.233Z,6.20
2022-10-09T17:14:28.245Z,4.97
2022-10-09T17:16:57.390Z,6.73
2022-10-09T17:19:29.380Z,4.20
2022-10-09T17:21:58.396Z,8.80
2022-10-09T17:24:28.064Z,5.27
2022-10-09T17:26:57.499Z,8.63
2022-10-09T17:29:26.902Z,8.40
2022-10-09T17:31:55.876Z,7.63
2022-10-09T17:34:24.894Z,7.43
2022-10-09T17:36:56.470Z,5.47
2022-10-09T17:39:25.542Z,9.13
2022-10-09T17:41:54.569Z,9.27
2022-10-09T17:44:23.576Z,7.80
2022-10-09T17:46:53.059Z,8.10
2022-10-09T17:49:22.047Z,6.53
2022-10-09T17:51:52.614Z,6.33
2022-10-09T17:54:39.939Z,11.27
2022-10-09T17:57:16.705Z,7.13
2022-10-09T17:59:46.101Z,5.97
2022-10-09T18:02:15.113Z,7.03
2022-10-09T18:04:44.053Z,9.97
2022-10-09T18:07:13.926Z,6.20
2022-10-09T18:09:44.989Z,5.03
2022-10-09T18:12:14.036Z,9.47
2022-10-09T18:14:45.940Z,11.57
2022-10-09T18:17:16.977Z,6.77
2022-10-09T18:19:46.015Z,5.93
2022-10-09T18:22:14.979Z,5.77
2022-10-09T18:24:45.754Z,7.00
2022-10-09T18:27:14.765Z,10.00
2022-10-09T18:29:44.210Z,12.13
2022-10-09T18:32:13.562Z,8.43
2022-10-09T18:34:46.374Z,4.80
2022-10-09T18:37:16.045Z,7.40
2022-10-09T18:39:47.089Z,3.73
2022-10-09T18:42:16.625Z,13.67
2022-10-09T18:44:46.047Z,6.53
2022-10-09T18:47:18.207Z,12.10
2022-10-09T18:49:51.540Z,7.20
2022-10-09T18:52:21.477Z,6.60
2022-10-09T18:54:55.244Z,6.97
2022-10-09T18:57:26.236Z,12.97
2022-10-09T18:59:58.494Z,5.10
2022-10-09T19:02:27.651Z,7.50
2022-10-09T19:04:57.925Z,5.07
2022-10-09T19:07:26.909Z,8.43
2022-10-09T19:09:59.411Z,13.57
2022-10-09T19:12:28.672Z,17.00
2022-10-09T19:14:57.671Z,7.23
2022-10-09T19:17:26.808Z,10.63
2022-10-09T19:19:55.919Z,6.53
2022-10-09T19:22:24.964Z,10.63
2022-10-09T19:24:53.960Z,4.80
2022-10-09T19:27:26.570Z,3.57
2022-10-09T19:29:56.638Z,13.90
2022-10-09T19:32:26.238Z,7.93
2022-10-09T19:34:55.582Z,6.50
2022-10-09T19:37:27.470Z,8.37
2022-10-09T19:39:59.036Z,4.47
2022-10-09T19:42:29.696Z,3.33
2022-10-09T19:44:59.123Z,6.10
2022-10-09T19:47:28.128Z,7.57
2022-10-09T19:49:59.594Z,10.70
2022-10-09T19:52:28.524Z,7.37
2022-10-09T19:54:57.521Z,2.70
2022-10-09T19:57:28.185Z,4.77
2022-10-09T19:59:57.429Z,6.70
2022-10-09T20:02:26.589Z,4.50
2022-10-09T20:04:55.543Z,5.73
2022-10-09T20:07:24.486Z,5.13
2022-10-09T20:09:53.430Z,9.63
2022-10-09T20:12:22.600Z,7.37
2022-10-09T20:14:53.059Z,10.00
2022-10-09T20:17:22.060Z,10.43
2022-10-09T20:19:51.275Z,4.50
2022-10-09T20:22:20.208Z,9.80
2022-10-09T20:24:49.243Z,8.60
2022-10-09T20:27:18.154Z,8.53
2022-10-09T20:29:47.591Z,7.47
2022-10-09T20:32:18.452Z,4.43
2022-10-09T20:34:47.421Z,10.00
2022-10-09T20:37:16.486Z,12.40
2022-10-09T20:39:45.420Z,6.60
2022-10-09T20:42:14.329Z,7.23
2022-10-09T20:44:43.317Z,12.10
2022-10-09T20:47:12.325Z,8.20
2022-10-09T20:49:43.607Z,4.10
2022-10-09T20:52:12.607Z,6.13
2022-10-09T20:54:41.771Z,14.93
2022-10-09T20:57:10.802Z,10.00
2022-10-09T20:59:39.786Z,5.90
2022-10-09T21:02:09.212Z,5.70
2022-10-09T21:04:38.305Z,4.80
2022-10-09T21:07:08.597Z,5.07
2022-10-09T21:09:38.468Z,11.53
2022-10-09T21:12:07.687Z,4.23
2022-10-09T21:14:38.167Z,5.90
2022-10-09T21:17:07.172Z,4.67
2022-10-09T21:19:36.155Z,4.60
2022-10-09T21:22:05.291Z,4.27
2022-10-09T21:24:35.586Z,10.37
2022-10-09T21:27:04.638Z,3.97
2022-10-09T21:29:33.565Z,4.00
2022-10-09T21:32:02.553Z,6.07
2022-10-09T21:34:31.558Z,5.40
2022-10-09T21:39:51.303Z,11.03
2022-10-09T21:42:20.248Z,3.57
2022-10-09T21:44:49.282Z,4.83
2022-10-09T21:47:19.601Z,6.47
2022-10-09T21:49:48.631Z,4.13
2022-10-09T21:52:17.604Z,7.53
2022-10-09T21:54:46.897Z,4.30
2022-10-09T21:57:17.243Z,6.03
2022-10-09T21:59:46.189Z,5.20
2022-10-09T22:02:15.108Z,10.57
2022-10-09T22:04:44.114Z,4.70
2022-10-09T22:07:13.056Z,3.13
2022-10-09T22:09:42.111Z,5.40
2022-10-09T22:12:11.258Z,3.07
2022-10-09T22:14:41.552Z,6.40
2022-10-09T22:17:10.578Z,2.97
2022-10-09T22:19:39.621Z,4.53
2022-10-09T22:22:08.950Z,2.50
2022-10-09T22:24:37.891Z,5.53
2022-10-09T22:27:07.282Z,10.90
2022-10-09T22:29:38.166Z,3.33
2022-10-09T22:32:10.268Z,6.87
2022-10-09T22:34:39.267Z,3.33
2022-10-09T22:37:08.239Z,9.13
2022-10-09T22:39:37.188Z,2.27
2022-10-09T22:42:06.289Z,3.97
2022-10-09T22:44:35.420Z,2.83
2022-10-09T22:47:04.381Z,3.07
2022-10-09T22:49:34.691Z,6.93
2022-10-09T22:52:03.659Z,9.77
2022-10-09T22:54:32.684Z,9.63
2022-10-09T22:57:01.590Z,4.53
2022-10-09T22:59:30.565Z,3.63
2022-10-09T23:02:00.329Z,3.77
2022-10-09T23:04:29.937Z,3.63
2022-10-09T23:07:01.256Z,2.10
2022-10-09T23:09:32.759Z,8.73
2022-10-09T23:12:02.006Z,4.20
2022-10-09T23:14:31.079Z,3.83
2022-10-09T23:17:00.104Z,5.00
2022-10-09T23:19:29.069Z,10.60
2022-10-09T23:21:59.379Z,6.13
2022-10-09T23:24:28.281Z,9.47
2022-10-09T23:26:57.244Z,4.33
2022-10-09T23:29:26.190Z,5.47
2022-10-09T23:31:55.134Z,2.87
2022-10-09T23:34:24.049Z,5.97
2022-10-09T23:36:53.018Z,2.73
2022-10-09T23:39:23.438Z,2.40
2022-10-09T23:41:52.303Z,6.70
2022-10-09T23:44:22.297Z,5.50
2022-10-09T23:46:51.973Z,6.40
2022-10-09T23:49:20.923Z,2.53
2022-10-09T23:51:49.828Z,2.73
2022-10-09T23:54:19.812Z,3.13
2022-10-09T23:56:50.084Z,7.63
2022-10-09T23:59:19.064Z,6.23
